sensor_id;sensor_type;location;lat;lon;timestamp;pressure;altitude;pressure_sealevel;temperature;humidity
49216;BME280;45943;53.148;8.204;2022-10-16T01:09:45;100912.00;;;26.77;49.00
49216;BME280;45943;53.148;8.204;2022-10-16T01:29:11;100917.41;;;26.83;48.81
49216;BME280;45943;53.148;8.204;2022-10-16T01:34:57;100916.69;;;26.95;49.06
49216;BME280;45943;53.148;8.204;2022-10-16T01:52:12;100925.34;;;27.17;48.68
49216;BME280;45943;53.148;8.204;2022-10-16T01:54:43;100920.28;;;27.13;47.29
49216;BME280;45943;53.148;8.204;2022-10-16T01:57:13;100922.13;;;27.20;48.38
49216;BME280;45943;53.148;8.204;2022-10-16T01:59:44;100919.84;;;27.17;47.38
49216;BME280;45943;53.148;8.204;2022-10-16T02:02:16;100927.25;;;27.16;47.39
49216;BME280;45943;53.148;8.204;2022-10-16T02:04:46;100922.13;;;27.20;48.03
49216;BME280;45943;53.148;8.204;2022-10-16T02:07:28;100931.09;;;27.15;47.55
49216;BME280;45943;53.148;8.204;2022-10-16T02:10:15;100931.16;;;27.08;46.99
49216;BME280;45943;53.148;8.204;2022-10-16T02:12:57;100929.47;;;27.26;47.48
49216;BME280;45943;53.148;8.204;2022-10-16T02:15:30;100928.97;;;26.74;47.91
49216;BME280;45943;53.148;8.204;2022-10-16T02:17:58;100928.31;;;26.97;48.67
49216;BME280;45943;53.148;8.204;2022-10-16T02:20:27;100932.97;;;26.78;48.54
49216;BME280;45943;53.148;8.204;2022-10-16T02:23:03;100940.91;;;26.68;48.08
49216;BME280;45943;53.148;8.204;2022-10-16T02:25:37;100940.56;;;26.57;47.78
49216;BME280;45943;53.148;8.204;2022-10-16T05:31:06;101003.44;;;26.79;49.84
49216;BME280;45943;53.148;8.204;2022-10-16T07:57:41;101191.75;;;27.28;49.54
49216;BME280;45943;53.148;8.204;2022-10-16T08:00:18;101198.72;;;27.30;50.23
49216;BME280;45943;53.148;8.204;2022-10-16T08:03:09;101202.78;;;26.96;51.08
49216;BME280;45943;53.148;8.204;2022-10-16T08:05:38;101213.75;;;27.34;50.57
49216;BME280;45943;53.148;8.204;2022-10-16T08:08:04;101207.75;;;27.12;50.80
49216;BME280;45943;53.148;8.204;2022-10-16T08:10:30;101211.25;;;27.51;49.93
49216;BME280;45943;53.148;8.204;2022-10-16T08:12:57;101218.47;;;27.27;50.72
49216;BME280;45943;53.148;8.204;2022-10-16T08:15:24;101202.59;;;27.48;50.10
49216;BME280;45943;53.148;8.204;2022-10-16T08:18:00;101214.31;;;27.61;49.79
49216;BME280;45943;53.148;8.204;2022-10-16T08:20:28;101216.63;;;27.89;49.45
49216;BME280;45943;53.148;8.204;2022-10-16T08:22:54;101217.09;;;28.05;47.90
49216;BME280;45943;53.148;8.204;2022-10-16T08:25:21;101219.09;;;26.91;50.46
49216;BME280;45943;53.148;8.204;2022-10-16T08:27:48;101215.59;;;27.40;49.55
49216;BME280;45943;53.148;8.204;2022-10-16T08:30:15;101224.00;;;27.95;48.47
49216;BME280;45943;53.148;8.204;2022-10-16T08:32:43;101222.63;;;27.36;48.87
49216;BME280;45943;53.148;8.204;2022-10-16T08:35:09;101211.19;;;27.83;49.37
49216;BME280;45943;53.148;8.204;2022-10-16T08:37:36;101217.91;;;27.68;49.06
49216;BME280;45943;53.148;8.204;2022-10-16T08:40:04;101223.06;;;27.83;48.33
49216;BME280;45943;53.148;8.204;2022-10-16T08:45:43;101225.53;;;28.46;47.06
49216;BME280;45943;53.148;8.204;2022-10-16T08:48:30;101240.22;;;28.22;47.63
49216;BME280;45943;53.148;8.204;2022-10-16T08:51:00;101247.66;;;28.58;47.40
49216;BME280;45943;53.148;8.204;2022-10-16T08:53:30;101249.28;;;28.29;47.44
49216;BME280;45943;53.148;8.204;2022-10-16T08:56:02;101247.53;;;28.83;46.00
49216;BME280;45943;53.148;8.204;2022-10-16T08:58:28;101244.84;;;28.76;45.55
49216;BME280;45943;53.148;8.204;2022-10-16T09:00:56;101243.91;;;28.16;47.23
49216;BME280;45943;53.148;8.204;2022-10-16T09:06:07;101257.47;;;28.72;46.68
49216;BME280;45943;53.148;8.204;2022-10-16T09:17:16;101266.94;;;28.28;47.44
49216;BME280;45943;53.148;8.204;2022-10-16T09:20:09;101269.69;;;28.28;47.12
49216;BME280;45943;53.148;8.204;2022-10-16T09:22:44;101281.25;;;28.37;46.92
49216;BME280;45943;53.148;8.204;2022-10-16T09:25:14;101278.91;;;28.89;46.39
49216;BME280;45943;53.148;8.204;2022-10-16T09:27:47;101273.66;;;28.99;44.84
49216;BME280;45943;53.148;8.204;2022-10-16T09:30:15;101293.13;;;28.74;46.07
49216;BME280;45943;53.148;8.204;2022-10-16T09:32:44;101277.88;;;28.53;45.47
49216;BME280;45943;53.148;8.204;2022-10-16T09:35:14;101286.94;;;27.98;47.80
49216;BME280;45943;53.148;8.204;2022-10-16T09:37:43;101286.50;;;27.52;48.78
49216;BME280;45943;53.148;8.204;2022-10-16T09:40:12;101278.19;;;27.58;48.70
49216;BME280;45943;53.148;8.204;2022-10-16T09:42:48;101289.06;;;27.78;47.71
49216;BME280;45943;53.148;8.204;2022-10-16T09:45:21;101295.16;;;28.78;46.12
49216;BME280;45943;53.148;8.204;2022-10-16T09:47:49;101306.09;;;28.55;45.30
49216;BME280;45943;53.148;8.204;2022-10-16T09:50:20;101307.09;;;28.42;45.08
49216;BME280;45943;53.148;8.204;2022-10-16T09:52:49;101315.34;;;28.61;45.34
49216;BME280;45943;53.148;8.204;2022-10-16T09:55:16;101320.53;;;28.87;45.30
49216;BME280;45943;53.148;8.204;2022-10-16T09:57:50;101327.19;;;29.16;44.84
49216;BME280;45943;53.148;8.204;2022-10-16T10:03:48;101329.84;;;28.38;45.76
49216;BME280;45943;53.148;8.204;2022-10-16T10:06:16;101327.44;;;27.48;47.49
49216;BME280;45943;53.148;8.204;2022-10-16T10:09:05;101333.28;;;29.06;45.10
49216;BME280;45943;53.148;8.204;2022-10-16T10:22:23;101344.78;;;27.55;44.92
49216;BME280;45943;53.148;8.204;2022-10-16T10:27:24;101359.50;;;28.79;43.18
49216;BME280;45943;53.148;8.204;2022-10-16T10:33:37;101364.94;;;27.49;46.04
49216;BME280;45943;53.148;8.204;2022-10-16T10:38:52;101375.81;;;27.76;45.21
49216;BME280;45943;53.148;8.204;2022-10-16T10:44:00;101367.19;;;29.13;42.41
49216;BME280;45943;53.148;8.204;2022-10-16T10:46:39;101373.59;;;29.56;41.87
49216;BME280;45943;53.148;8.204;2022-10-16T10:49:29;101379.16;;;29.67;40.88
49216;BME280;45943;53.148;8.204;2022-10-16T11:00:28;101377.56;;;28.63;42.20
49216;BME280;45943;53.148;8.204;2022-10-16T11:05:48;101400.19;;;26.96;44.09
49216;BME280;45943;53.148;8.204;2022-10-16T11:11:20;101386.81;;;28.32;42.77
49216;BME280;45943;53.148;8.204;2022-10-16T11:16:28;101389.22;;;29.02;40.10
49216;BME280;45943;53.148;8.204;2022-10-16T11:22:04;101399.97;;;29.70;40.05
49216;BME280;45943;53.148;8.204;2022-10-16T11:27:08;101418.94;;;30.08;38.62
49216;BME280;45943;53.148;8.204;2022-10-16T11:29:41;101410.41;;;29.68;39.21
49216;BME280;45943;53.148;8.204;2022-10-16T11:32:22;101416.31;;;30.60;38.82
49216;BME280;45943;53.148;8.204;2022-10-16T11:34:57;101428.13;;;28.39;40.25
49216;BME280;45943;53.148;8.204;2022-10-16T11:37:32;101420.06;;;28.62;39.96
49216;BME280;45943;53.148;8.204;2022-10-16T11:40:16;101423.47;;;29.01;38.47
49216;BME280;45943;53.148;8.204;2022-10-16T11:42:51;101432.13;;;29.53;38.98
49216;BME280;45943;53.148;8.204;2022-10-16T11:46:08;101426.78;;;30.11;37.26
49216;BME280;45943;53.148;8.204;2022-10-16T11:50:56;101437.81;;;29.39;36.53
49216;BME280;45943;53.148;8.204;2022-10-16T11:56:07;101456.69;;;28.69;38.11
49216;BME280;45943;53.148;8.204;2022-10-16T12:04:14;101448.13;;;28.34;38.09
49216;BME280;45943;53.148;8.204;2022-10-16T12:06:48;101462.59;;;29.46;36.82
49216;BME280;45943;53.148;8.204;2022-10-16T12:09:21;101456.84;;;28.31;37.64
49216;BME280;45943;53.148;8.204;2022-10-16T12:11:51;101471.75;;;29.77;35.63
49216;BME280;45943;53.148;8.204;2022-10-16T12:14:19;101463.94;;;29.74;35.45
49216;BME280;45943;53.148;8.204;2022-10-16T12:19:21;101458.06;;;29.03;36.42
49216;BME280;45943;53.148;8.204;2022-10-16T12:21:49;101469.00;;;30.18;35.52
49216;BME280;45943;53.148;8.204;2022-10-16T12:24:39;101478.06;;;30.96;35.43
49216;BME280;45943;53.148;8.204;2022-10-16T12:27:25;101472.53;;;30.61;34.50
49216;BME280;45943;53.148;8.204;2022-10-16T12:29:59;101488.81;;;30.04;35.03
49216;BME280;45943;53.148;8.204;2022-10-16T12:32:31;101508.63;;;30.31;34.50
49216;BME280;45943;53.148;8.204;2022-10-16T12:35:00;101501.84;;;29.55;35.15
49216;BME280;45943;53.148;8.204;2022-10-16T12:37:30;101501.28;;;28.73;36.67
49216;BME280;45943;53.148;8.204;2022-10-16T12:39:58;101502.38;;;29.63;34.81
49216;BME280;45943;53.148;8.204;2022-10-16T12:42:37;101504.38;;;29.38;35.29
49216;BME280;45943;53.148;8.204;2022-10-16T12:45:21;101510.09;;;30.33;34.80
49216;BME280;45943;53.148;8.204;2022-10-16T12:47:56;101523.50;;;30.18;34.66
49216;BME280;45943;53.148;8.204;2022-10-16T12:50:35;101519.00;;;30.47;35.04
49216;BME280;45943;53.148;8.204;2022-10-16T12:53:04;101523.19;;;29.66;35.21
49216;BME280;45943;53.148;8.204;2022-10-16T13:17:54;101536.84;;;31.33;32.71
49216;BME280;45943;53.148;8.204;2022-10-16T13:20:51;101534.47;;;32.22;31.82
49216;BME280;45943;53.148;8.204;2022-10-16T13:23:36;101538.28;;;31.87;31.53
49216;BME280;45943;53.148;8.204;2022-10-16T13:26:26;101543.59;;;32.68;30.97
49216;BME280;45943;53.148;8.204;2022-10-16T13:29:05;101553.13;;;33.71;29.21
49216;BME280;45943;53.148;8.204;2022-10-16T13:31:32;101541.47;;;33.08;31.44
49216;BME280;45943;53.148;8.204;2022-10-16T13:33:59;101542.38;;;33.80;29.12
49216;BME280;45943;53.148;8.204;2022-10-16T13:36:33;101556.28;;;34.02;28.50
49216;BME280;45943;53.148;8.204;2022-10-16T13:39:12;101553.44;;;32.92;31.01
49216;BME280;45943;53.148;8.204;2022-10-16T13:41:57;101550.81;;;33.41;29.58
49216;BME280;45943;53.148;8.204;2022-10-16T13:44:27;101574.09;;;32.96;29.70
49216;BME280;45943;53.148;8.204;2022-10-16T13:47:00;101571.19;;;33.08;29.88
49216;BME280;45943;53.148;8.204;2022-10-16T13:49:26;101579.72;;;32.06;30.96
49216;BME280;45943;53.148;8.204;2022-10-16T13:51:56;101579.97;;;32.66;31.31
49216;BME280;45943;53.148;8.204;2022-10-16T13:54:25;101600.47;;;31.16;31.64
49216;BME280;45943;53.148;8.204;2022-10-16T13:56:54;101589.72;;;30.19;33.75
49216;BME280;45943;53.148;8.204;2022-10-16T13:59:22;101598.50;;;30.58;32.63
49216;BME280;45943;53.148;8.204;2022-10-16T14:01:49;101599.63;;;31.51;34.08
49216;BME280;45943;53.148;8.204;2022-10-16T14:04:17;101591.97;;;30.52;33.20
49216;BME280;45943;53.148;8.204;2022-10-16T14:06:44;101593.69;;;30.65;34.29
49216;BME280;45943;53.148;8.204;2022-10-16T14:09:25;101603.97;;;31.00;33.96
49216;BME280;45943;53.148;8.204;2022-10-16T14:12:03;101603.88;;;30.41;33.47
49216;BME280;45943;53.148;8.204;2022-10-16T14:14:42;101601.84;;;30.48;33.15
49216;BME280;45943;53.148;8.204;2022-10-16T14:17:15;101621.19;;;30.78;32.83
49216;BME280;45943;53.148;8.204;2022-10-16T14:19:50;101601.94;;;29.63;33.75
49216;BME280;45943;53.148;8.204;2022-10-16T14:22:39;101614.91;;;30.71;33.18
49216;BME280;45943;53.148;8.204;2022-10-16T14:27:44;101622.06;;;30.49;33.22
49216;BME280;45943;53.148;8.204;2022-10-16T14:30:18;101624.88;;;30.19;32.86
49216;BME280;45943;53.148;8.204;2022-10-16T14:32:54;101619.91;;;30.51;32.28
49216;BME280;45943;53.148;8.204;2022-10-16T14:35:22;101626.34;;;29.85;32.76
49216;BME280;45943;53.148;8.204;2022-10-16T14:37:53;101621.97;;;29.59;34.41
49216;BME280;45943;53.148;8.204;2022-10-16T14:40:24;101620.72;;;30.10;33.32
49216;BME280;45943;53.148;8.204;2022-10-16T14:42:53;101620.22;;;30.43;33.42
49216;BME280;45943;53.148;8.204;2022-10-16T14:45:23;101620.28;;;29.76;33.28
49216;BME280;45943;53.148;8.204;2022-10-16T14:47:53;101623.78;;;30.62;32.31
49216;BME280;45943;53.148;8.204;2022-10-16T14:50:21;101622.66;;;30.93;32.50
49216;BME280;45943;53.148;8.204;2022-10-16T14:52:48;101622.19;;;30.54;33.26
49216;BME280;45943;53.148;8.204;2022-10-16T14:55:14;101626.97;;;30.47;34.14
49216;BME280;45943;53.148;8.204;2022-10-16T14:57:40;101626.88;;;29.57;33.52
49216;BME280;45943;53.148;8.204;2022-10-16T15:00:13;101632.66;;;29.55;34.67
49216;BME280;45943;53.148;8.204;2022-10-16T15:02:42;101639.53;;;30.01;33.76
49216;BME280;45943;53.148;8.204;2022-10-16T15:07:46;101659.69;;;29.53;34.41
49216;BME280;45943;53.148;8.204;2022-10-16T15:10:13;101655.00;;;29.54;34.88
49216;BME280;45943;53.148;8.204;2022-10-16T15:12:39;101652.53;;;29.82;34.62
49216;BME280;45943;53.148;8.204;2022-10-16T15:17:58;101649.06;;;29.68;35.11
49216;BME280;45943;53.148;8.204;2022-10-16T15:20:30;101660.25;;;29.37;35.71
49216;BME280;45943;53.148;8.204;2022-10-16T15:23:00;101669.22;;;29.76;36.28
49216;BME280;45943;53.148;8.204;2022-10-16T15:25:35;101673.53;;;29.72;35.79
49216;BME280;45943;53.148;8.204;2022-10-16T15:28:02;101674.75;;;29.94;35.55
49216;BME280;45943;53.148;8.204;2022-10-16T15:30:29;101672.13;;;29.99;35.54
49216;BME280;45943;53.148;8.204;2022-10-16T15:32:56;101666.72;;;30.04;36.56
49216;BME280;45943;53.148;8.204;2022-10-16T15:35:22;101673.06;;;29.93;36.21
49216;BME280;45943;53.148;8.204;2022-10-16T15:37:48;101671.44;;;29.85;35.55
49216;BME280;45943;53.148;8.204;2022-10-16T15:40:15;101669.81;;;29.59;36.18
49216;BME280;45943;53.148;8.204;2022-10-16T15:42:42;101667.34;;;29.88;36.04
49216;BME280;45943;53.148;8.204;2022-10-16T15:45:08;101666.69;;;30.11;36.81
49216;BME280;45943;53.148;8.204;2022-10-16T15:47:35;101662.66;;;29.88;36.33
49216;BME280;45943;53.148;8.204;2022-10-16T15:50:01;101662.16;;;29.80;36.50
49216;BME280;45943;53.148;8.204;2022-10-16T15:52:27;101658.91;;;29.83;37.35
49216;BME280;45943;53.148;8.204;2022-10-16T15:54:54;101668.59;;;29.74;36.44
49216;BME280;45943;53.148;8.204;2022-10-16T15:57:20;101670.03;;;29.58;36.18
49216;BME280;45943;53.148;8.204;2022-10-16T15:59:46;101672.66;;;29.53;36.66
49216;BME280;45943;53.148;8.204;2022-10-16T16:02:12;101669.28;;;29.69;37.93
49216;BME280;45943;53.148;8.204;2022-10-16T16:04:38;101671.91;;;29.82;37.64
49216;BME280;45943;53.148;8.204;2022-10-16T16:07:04;101682.50;;;29.67;38.38
49216;BME280;45943;53.148;8.204;2022-10-16T16:09:33;101690.41;;;29.63;38.70
49216;BME280;45943;53.148;8.204;2022-10-16T16:12:00;101682.66;;;29.72;40.19
49216;BME280;45943;53.148;8.204;2022-10-16T16:14:26;101688.19;;;29.72;40.45
49216;BME280;45943;53.148;8.204;2022-10-16T16:16:56;101692.28;;;29.69;40.36
49216;BME280;45943;53.148;8.204;2022-10-16T16:19:23;101709.41;;;29.60;40.61
49216;BME280;45943;53.148;8.204;2022-10-16T16:21:49;101701.16;;;29.53;40.63
49216;BME280;45943;53.148;8.204;2022-10-16T16:24:15;101709.09;;;29.43;40.30
49216;BME280;45943;53.148;8.204;2022-10-16T16:26:41;101711.44;;;29.39;40.88
49216;BME280;45943;53.148;8.204;2022-10-16T16:29:10;101706.44;;;29.30;40.76
49216;BME280;45943;53.148;8.204;2022-10-16T16:31:39;101708.22;;;29.24;41.65
49216;BME280;45943;53.148;8.204;2022-10-16T16:34:05;101721.97;;;29.31;41.51
49216;BME280;45943;53.148;8.204;2022-10-16T16:36:32;101719.53;;;29.16;41.74
49216;BME280;45943;53.148;8.204;2022-10-16T16:39:33;101721.63;;;29.21;41.74
49216;BME280;45943;53.148;8.204;2022-10-16T16:44:53;101725.34;;;29.08;42.15
49216;BME280;45943;53.148;8.204;2022-10-16T16:47:19;101736.50;;;28.95;41.34
49216;BME280;45943;53.148;8.204;2022-10-16T16:49:45;101745.25;;;28.85;42.05
49216;BME280;45943;53.148;8.204;2022-10-16T16:52:12;101743.13;;;28.80;41.60
49216;BME280;45943;53.148;8.204;2022-10-16T16:54:38;101748.00;;;28.85;42.34
49216;BME280;45943;53.148;8.204;2022-10-16T16:57:04;101757.63;;;28.76;42.27
49216;BME280;45943;53.148;8.204;2022-10-16T16:59:30;101761.91;;;28.72;42.60
49216;BME280;45943;53.148;8.204;2022-10-16T17:02:01;101757.41;;;28.71;42.92
49216;BME280;45943;53.148;8.204;2022-10-16T17:04:28;101751.97;;;28.64;42.61
49216;BME280;45943;53.148;8.204;2022-10-16T17:06:54;101762.19;;;28.57;42.70
49216;BME280;45943;53.148;8.204;2022-10-16T17:09:20;101767.47;;;28.58;42.87
49216;BME280;45943;53.148;8.204;2022-10-16T17:11:47;101770.00;;;28.60;42.83
49216;BME280;45943;53.148;8.204;2022-10-16T17:14:14;101771.09;;;28.59;42.94
49216;BME280;45943;53.148;8.204;2022-10-16T17:16:40;101777.31;;;28.48;43.26
49216;BME280;45943;53.148;8.204;2022-10-16T17:19:13;101784.13;;;28.45;42.84
49216;BME280;45943;53.148;8.204;2022-10-16T17:21:42;101789.84;;;28.44;42.72
49216;BME280;45943;53.148;8.204;2022-10-16T17:24:08;101785.03;;;28.33;43.06
49216;BME280;45943;53.148;8.204;2022-10-16T17:26:34;101787.75;;;28.26;43.04
49216;BME280;45943;53.148;8.204;2022-10-16T17:29:03;101786.97;;;28.12;43.68
49216;BME280;45943;53.148;8.204;2022-10-16T17:31:30;101801.84;;;28.05;43.27
49216;BME280;45943;53.148;8.204;2022-10-16T17:33:58;101798.91;;;27.93;43.75
49216;BME280;45943;53.148;8.204;2022-10-16T17:36:25;101800.38;;;27.89;43.84
49216;BME280;45943;53.148;8.204;2022-10-16T17:38:54;101803.56;;;27.79;43.33
49216;BME280;45943;53.148;8.204;2022-10-16T17:41:23;101803.56;;;27.79;44.28
49216;BME280;45943;53.148;8.204;2022-10-16T17:43:49;101809.31;;;27.78;43.98
49216;BME280;45943;53.148;8.204;2022-10-16T17:46:18;101813.34;;;27.68;44.24
49216;BME280;45943;53.148;8.204;2022-10-16T17:48:47;101819.06;;;27.74;44.37
49216;BME280;45943;53.148;8.204;2022-10-16T17:51:16;101825.63;;;27.72;44.11
49216;BME280;45943;53.148;8.204;2022-10-16T17:53:46;101830.94;;;27.74;44.14
49216;BME280;45943;53.148;8.204;2022-10-16T17:56:13;101824.38;;;27.68;44.81
49216;BME280;45943;53.148;8.204;2022-10-16T17:58:39;101826.00;;;27.63;44.55
49216;BME280;45943;53.148;8.204;2022-10-16T18:01:18;101832.19;;;27.58;44.49
49216;BME280;45943;53.148;8.204;2022-10-16T18:03:48;101821.16;;;27.58;44.62
49216;BME280;45943;53.148;8.204;2022-10-16T18:06:18;101831.34;;;27.64;44.35
49216;BME280;45943;53.148;8.204;2022-10-16T18:08:45;101832.84;;;27.54;44.79
49216;BME280;45943;53.148;8.204;2022-10-16T18:11:10;101837.69;;;27.45;44.93
49216;BME280;45943;53.148;8.204;2022-10-16T18:13:37;101837.66;;;27.32;45.48
49216;BME280;45943;53.148;8.204;2022-10-16T18:16:07;101841.66;;;27.23;45.57
49216;BME280;45943;53.148;8.204;2022-10-16T18:18:36;101841.91;;;27.14;46.24
49216;BME280;45943;53.148;8.204;2022-10-16T18:21:07;101836.38;;;27.14;45.81
49216;BME280;45943;53.148;8.204;2022-10-16T18:23:35;101848.44;;;27.13;45.89
49216;BME280;45943;53.148;8.204;2022-10-16T18:26:02;101845.50;;;27.15;45.32
49216;BME280;45943;53.148;8.204;2022-10-16T18:28:29;101844.78;;;27.00;44.78
49216;BME280;45943;53.148;8.204;2022-10-16T18:30:56;101847.19;;;27.16;45.49
49216;BME280;45943;53.148;8.204;2022-10-16T18:33:27;101847.41;;;27.14;45.47
49216;BME280;45943;53.148;8.204;2022-10-16T18:36:00;101852.06;;;27.14;45.28
49216;BME280;45943;53.148;8.204;2022-10-16T18:38:28;101852.16;;;26.93;44.46
49216;BME280;45943;53.148;8.204;2022-10-16T18:40:55;101854.25;;;26.84;44.98
49216;BME280;45943;53.148;8.204;2022-10-16T18:43:22;101868.22;;;26.76;44.81
49216;BME280;45943;53.148;8.204;2022-10-16T18:45:58;101866.53;;;26.81;45.89
49216;BME280;45943;53.148;8.204;2022-10-16T18:48:28;101867.38;;;26.82;45.71
49216;BME280;45943;53.148;8.204;2022-10-16T18:53:43;101870.56;;;26.79;46.19
49216;BME280;45943;53.148;8.204;2022-10-16T18:56:12;101875.00;;;26.80;46.77
49216;BME280;45943;53.148;8.204;2022-10-16T18:58:41;101876.22;;;26.71;47.06
49216;BME280;45943;53.148;8.204;2022-10-16T19:01:08;101874.31;;;26.71;47.22
49216;BME280;45943;53.148;8.204;2022-10-16T19:03:36;101886.59;;;26.69;47.31
49216;BME280;45943;53.148;8.204;2022-10-16T19:06:04;101884.91;;;26.68;47.13
49216;BME280;45943;53.148;8.204;2022-10-16T19:08:33;101874.94;;;26.67;46.20
49216;BME280;45943;53.148;8.204;2022-10-16T19:11:03;101877.06;;;26.65;46.96
49216;BME280;45943;53.148;8.204;2022-10-16T19:13:33;101868.34;;;26.61;46.26
49216;BME280;45943;53.148;8.204;2022-10-16T19:16:00;101871.13;;;26.68;46.82
49216;BME280;45943;53.148;8.204;2022-10-16T19:18:27;101878.72;;;27.07;46.07
49216;BME280;45943;53.148;8.204;2022-10-16T19:20:59;101876.88;;;26.73;46.63
49216;BME280;45943;53.148;8.204;2022-10-16T19:23:26;101867.22;;;26.97;46.37
49216;BME280;45943;53.148;8.204;2022-10-16T19:25:52;101862.88;;;27.15;45.67
49216;BME280;45943;53.148;8.204;2022-10-16T19:28:18;101867.75;;;27.27;45.51
49216;BME280;45943;53.148;8.204;2022-10-16T19:30:44;101873.03;;;27.22;44.69
49216;BME280;45943;53.148;8.204;2022-10-16T19:33:11;101866.03;;;27.19;45.26
49216;BME280;45943;53.148;8.204;2022-10-16T19:35:37;101864.97;;;27.20;44.90
49216;BME280;45943;53.148;8.204;2022-10-16T19:38:03;101874.53;;;27.31;45.53
49216;BME280;45943;53.148;8.204;2022-10-16T19:40:29;101875.81;;;27.28;44.48
49216;BME280;45943;53.148;8.204;2022-10-16T19:42:55;101885.16;;;27.27;44.48
49216;BME280;45943;53.148;8.204;2022-10-16T19:45:21;101870.91;;;27.17;44.53
49216;BME280;45943;53.148;8.204;2022-10-16T19:47:47;101872.41;;;27.20;45.12
49216;BME280;45943;53.148;8.204;2022-10-16T19:50:13;101866.25;;;27.18;44.88
49216;BME280;45943;53.148;8.204;2022-10-16T19:52:41;101870.47;;;27.13;44.90
49216;BME280;45943;53.148;8.204;2022-10-16T19:55:07;101882.34;;;27.07;44.93
49216;BME280;45943;53.148;8.204;2022-10-16T19:57:34;101887.22;;;27.05;45.05
49216;BME280;45943;53.148;8.204;2022-10-16T20:00:01;101887.63;;;27.09;44.96
49216;BME280;45943;53.148;8.204;2022-10-16T20:02:29;101890.00;;;27.19;45.61
49216;BME280;45943;53.148;8.204;2022-10-16T20:04:55;101884.47;;;27.19;44.84
49216;BME280;45943;53.148;8.204;2022-10-16T20:07:21;101890.63;;;27.21;45.10
49216;BME280;45943;53.148;8.204;2022-10-16T20:09:48;101907.97;;;27.08;44.61
49216;BME280;45943;53.148;8.204;2022-10-16T20:12:15;101923.00;;;27.05;44.17
49216;BME280;45943;53.148;8.204;2022-10-16T20:14:42;101921.84;;;26.93;44.48
49216;BME280;45943;53.148;8.204;2022-10-16T20:17:08;101924.22;;;26.96;45.20
49216;BME280;45943;53.148;8.204;2022-10-16T20:19:34;101916.16;;;27.01;45.22
49216;BME280;45943;53.148;8.204;2022-10-16T20:22:00;101912.19;;;27.04;45.11
49216;BME280;45943;53.148;8.204;2022-10-16T20:24:26;101911.16;;;27.05;45.11
49216;BME280;45943;53.148;8.204;2022-10-16T20:26:52;101916.00;;;27.03;45.90
49216;BME280;45943;53.148;8.204;2022-10-16T20:29:18;101928.91;;;27.02;45.24
49216;BME280;45943;53.148;8.204;2022-10-16T20:31:44;101910.09;;;27.06;44.86
49216;BME280;45943;53.148;8.204;2022-10-16T20:34:10;101903.97;;;27.17;45.81
49216;BME280;45943;53.148;8.204;2022-10-16T20:36:37;101916.06;;;27.23;45.52
49216;BME280;45943;53.148;8.204;2022-10-16T20:39:07;101916.72;;;27.25;44.96
49216;BME280;45943;53.148;8.204;2022-10-16T20:41:33;101923.00;;;27.12;44.40
49216;BME280;45943;53.148;8.204;2022-10-16T20:44:00;101931.41;;;26.97;45.66
49216;BME280;45943;53.148;8.204;2022-10-16T20:46:27;101930.00;;;26.67;46.19
49216;BME280;45943;53.148;8.204;2022-10-16T20:48:54;101930.09;;;26.45;47.07
49216;BME280;45943;53.148;8.204;2022-10-16T20:51:23;101922.63;;;26.39;47.76
49216;BME280;45943;53.148;8.204;2022-10-16T20:53:54;101930.94;;;26.46;48.48
49216;BME280;45943;53.148;8.204;2022-10-16T20:56:22;101933.06;;;26.50;47.54
49216;BME280;45943;53.148;8.204;2022-10-16T20:58:49;101937.50;;;26.51;47.23
49216;BME280;45943;53.148;8.204;2022-10-16T21:01:16;101946.50;;;26.67;47.83
49216;BME280;45943;53.148;8.204;2022-10-16T21:03:48;101938.00;;;26.62;46.88
49216;BME280;45943;53.148;8.204;2022-10-16T21:06:18;101933.97;;;26.64;47.11
49216;BME280;45943;53.148;8.204;2022-10-16T21:08:45;101928.69;;;26.63;47.55
49216;BME280;45943;53.148;8.204;2022-10-16T21:11:15;101935.34;;;26.81;47.85
49216;BME280;45943;53.148;8.204;2022-10-16T21:13:43;101933.63;;;26.74;47.65
49216;BME280;45943;53.148;8.204;2022-10-16T21:16:09;101942.81;;;26.87;48.55
49216;BME280;45943;53.148;8.204;2022-10-16T21:18:37;101943.03;;;26.86;49.01
49216;BME280;45943;53.148;8.204;2022-10-16T21:21:04;101933.28;;;26.90;49.38
49216;BME280;45943;53.148;8.204;2022-10-16T21:23:31;101934.75;;;26.93;48.86
49216;BME280;45943;53.148;8.204;2022-10-16T21:25:58;101938.84;;;26.97;48.79
49216;BME280;45943;53.148;8.204;2022-10-16T21:28:27;101915.00;;;27.17;47.30
49216;BME280;45943;53.148;8.204;2022-10-16T21:30:55;101919.09;;;26.93;47.87
49216;BME280;45943;53.148;8.204;2022-10-16T21:33:21;101920.78;;;26.87;47.12
49216;BME280;45943;53.148;8.204;2022-10-16T21:35:47;101923.75;;;26.93;47.11
49216;BME280;45943;53.148;8.204;2022-10-16T21:38:13;101917.56;;;26.84;47.11
49216;BME280;45943;53.148;8.204;2022-10-16T21:40:39;101929.78;;;27.09;47.14
49216;BME280;45943;53.148;8.204;2022-10-16T21:43:05;101932.44;;;27.37;46.17
49216;BME280;45943;53.148;8.204;2022-10-16T21:45:32;101935.63;;;27.48;46.99
49216;BME280;45943;53.148;8.204;2022-10-16T21:47:58;101933.41;;;27.10;48.32
49216;BME280;45943;53.148;8.204;2022-10-16T21:50:24;101932.22;;;26.91;48.34
49216;BME280;45943;53.148;8.204;2022-10-16T21:52:51;101926.44;;;27.14;47.43
49216;BME280;45943;53.148;8.204;2022-10-16T21:55:17;101918.59;;;27.18;47.60
49216;BME280;45943;53.148;8.204;2022-10-16T21:57:43;101909.06;;;27.20;47.40
49216;BME280;45943;53.148;8.204;2022-10-16T22:00:09;101903.78;;;27.32;47.51
49216;BME280;45943;53.148;8.204;2022-10-16T22:02:35;101900.03;;;27.46;48.08
49216;BME280;45943;53.148;8.204;2022-10-16T22:05:01;101903.00;;;27.44;47.98
49216;BME280;45943;53.148;8.204;2022-10-16T22:07:28;101896.41;;;27.39;47.44